Time;durP1;ratioP1;P1;durP2;ratioP2;P2;SDS_P1;SDS_P2;PMS_P1;PMS_P2;Temp;Humidity;BMP_temperature;BMP_pressure;BME280_temperature;BME280_humidity;BME280_pressure;Samples;Min_cycle;Max_cycle;Signal;HPM_P1;HPM_P2
2021/05/31 00:00:23;;;;;;;5.50;1.46;;;;;;;14.17;70.06;99309.44;367053;108;1970108;-74
2021/05/31 00:01:48;;;;;;;5.39;1.82;;;;;;;14.22;70.30;99314.16;364928;109;1960792;-74
2021/05/31 00:03:00;;;;;;;6.52;1.83;;;;;;;14.35;69.95;99310.38;386485;106;1962032;-74
2021/05/31 00:04:06;;;;;;;5.52;1.66;;;;;;;14.23;69.64;99313.09;360072;107;1961979;-74
2021/05/31 00:05:14;;;;;;;5.61;1.65;;;;;;;14.21;69.74;99307.91;364377;110;1960781;-74
2021/05/31 00:06:26;;;;;;;4.21;1.89;;;;;;;14.28;69.38;99311.30;389856;106;1986030;-74
2021/05/31 00:07:32;;;;;;;5.82;2.30;;;;;;;14.15;69.80;99308.03;368920;107;1960935;-74
2021/05/31 00:08:44;;;;;;;7.16;1.86;;;;;;;14.17;70.15;99306.72;377082;106;2981966;-75
2021/05/31 00:09:54;;;;;;;5.17;1.49;;;;;;;13.99;70.39;99306.86;360122;109;2888039;-75
2021/05/31 00:11:18;;;;;;;4.88;1.59;;;;;;;13.91;70.66;99309.94;319665;110;2109836;-74
2021/05/31 00:12:23;;;;;;;4.58;1.48;;;;;;;13.84;71.22;99310.06;368085;109;1960735;-74
2021/05/31 00:13:36;;;;;;;5.11;1.89;;;;;;;13.96;71.10;99305.44;350799;106;2392803;-76
2021/05/31 00:14:44;;;;;;;10.07;2.04;;;;;;;13.88;71.45;99307.70;360611;109;1960857;-75
2021/05/31 00:15:57;;;;;;;9.42;1.97;;;;;;;14.05;71.41;99306.75;347642;106;2652034;-74
2021/05/31 00:17:03;;;;;;;5.67;1.52;;;;;;;13.97;71.09;99314.41;366538;110;1961945;-75
2021/05/31 00:18:27;;;;;;;3.94;1.40;;;;;;;13.99;70.44;99315.00;327567;110;1987003;-75
2021/05/31 00:19:40;;;;;;;6.83;1.91;;;;;;;14.14;70.64;99307.20;389545;104;2076950;-75
2021/05/31 00:20:48;;;;;;;10.52;1.85;;;;;;;14.05;70.86;99311.33;339859;107;2460004;-75
2021/05/31 00:22:01;;;;;;;4.33;1.49;;;;;;;14.19;71.19;99310.03;395317;104;1964954;-75
2021/05/31 00:23:07;;;;;;;5.89;1.76;;;;;;;14.11;70.95;99310.40;370452;107;1962980;-75
2021/05/31 00:24:31;;;;;;;3.21;1.29;;;;;;;14.15;70.83;99303.41;371631;107;1963893;-75
2021/05/31 00:25:36;;;;;;;5.28;1.29;;;;;;;14.18;70.52;99308.36;370192;108;1962803;-74
2021/05/31 00:26:48;;;;;;;4.82;1.41;;;;;;;14.35;70.63;99313.09;373347;108;2857002;-74
2021/05/31 00:27:55;;;;;;;3.11;1.46;;;;;;;14.25;70.10;99302.81;328115;111;2546957;-74
2021/05/31 00:29:07;;;;;;;4.42;1.34;;;;;;;14.40;70.10;99307.77;390046;104;2071848;-75
2021/05/31 00:30:14;;;;;;;5.52;1.75;;;;;;;14.30;69.93;99309.19;373798;105;1961950;-73
2021/05/31 00:31:26;;;;;;;5.29;1.49;;;;;;;14.43;70.13;99308.09;374604;103;2071945;-75
2021/05/31 00:32:31;;;;;;;5.77;1.94;;;;;;;14.35;69.98;99304.94;360192;107;1962054;-74
2021/05/31 00:33:38;;;;;;;4.01;1.38;;;;;;;14.36;69.60;99312.83;371957;107;1961975;-73
2021/05/31 00:34:43;;;;;;;5.03;1.60;;;;;;;14.36;69.57;99315.55;367718;107;1961946;-75
2021/05/31 00:35:48;;;;;;;4.81;1.62;;;;;;;14.34;69.58;99314.95;363268;109;1964956;-74
2021/05/31 00:37:02;;;;;;;7.19;2.08;;;;;;;14.41;69.64;99307.50;364104;101;2625025;-72
2021/05/31 00:38:07;;;;;;;8.12;2.17;;;;;;;14.23;69.41;99313.91;380644;105;1961930;-71
2021/05/31 00:39:21;;;;;;;5.43;2.12;;;;;;;14.28;69.60;99318.64;398924;104;1986043;-75
2021/05/31 00:40:28;;;;;;;3.45;1.71;;;;;;;14.09;69.70;99312.52;379815;105;1963960;-76
2021/05/31 00:41:44;;;;;;;6.02;2.46;;;;;;;14.11;69.56;99312.30;375124;106;3028949;-72
2021/05/31 00:42:48;;;;;;;7.00;2.25;;;;;;;13.95;69.58;99313.84;365287;110;1961932;-71
2021/05/31 00:44:00;;;;;;;4.58;2.05;;;;;;;13.98;70.14;99316.08;392332;104;1987023;-71
2021/05/31 00:45:08;;;;;;;4.69;1.74;;;;;;;13.80;70.00;99315.13;375268;106;1962014;-72
2021/05/31 00:46:32;;;;;;;6.06;1.87;;;;;;;13.73;69.87;99317.11;354242;107;2295971;-72
2021/05/31 00:47:37;;;;;;;5.87;2.04;;;;;;;13.70;70.27;99317.59;350664;109;1962022;-73
2021/05/31 00:48:49;;;;;;;4.46;1.86;;;;;;;13.79;70.48;99313.48;394525;104;1987061;-72
2021/05/31 00:49:54;;;;;;;4.53;1.67;;;;;;;13.66;70.22;99315.60;374291;107;1961989;-71
2021/05/31 00:51:10;;;;;;;4.41;1.73;;;;;;;13.73;70.61;99319.01;388560;103;2852985;-71
2021/05/31 00:52:16;;;;;;;4.79;1.49;;;;;;;13.60;70.61;99314.63;379193;105;1963916;-72
2021/05/31 00:53:40;;;;;;;7.13;1.68;;;;;;;13.59;70.80;99305.66;373526;107;1961941;-71
2021/05/31 00:54:52;;;;;;;3.91;1.38;;;;;;;13.76;70.74;99313.10;394126;104;1985935;-71
2021/05/31 00:55:59;;;;;;;6.63;1.66;;;;;;;13.69;70.66;99310.52;330024;107;2771928;-72
2021/05/31 00:57:11;;;;;;;4.34;1.30;;;;;;;13.85;70.21;99312.52;392983;104;1973014;-74
2021/05/31 00:58:17;;;;;;;4.86;1.51;;;;;;;13.77;70.54;99317.49;371905;107;1962030;-75
2021/05/31 00:59:41;;;;;;;3.72;1.47;;;;;;;13.81;69.79;99314.08;370826;107;1960871;-75
2021/05/31 01:00:46;;;;;;;4.74;1.26;;;;;;;13.87;70.40;99314.20;371412;107;1965479;-74
2021/05/31 01:02:18;;;;;;;3.81;1.34;;;;;;;14.06;70.13;99319.25;382733;105;1986923;-74
2021/05/31 01:03:25;;;;;;;7.67;1.84;;;;;;;13.96;69.61;99315.48;321440;109;2773006;-75
2021/05/31 01:04:38;;;;;;;4.01;1.55;;;;;;;14.04;68.92;99317.84;387239;106;1986021;-74
2021/05/31 01:05:45;;;;;;;4.30;2.33;;;;;;;13.90;69.61;99317.26;365758;109;1962028;-76
2021/05/31 01:07:28;;;;;;;4.77;1.86;;;;;;;13.89;69.75;99321.02;364695;109;1962085;-74
2021/05/31 01:09:07;;;;;;;6.38;2.44;;;;;;;14.00;69.21;99320.21;339832;104;2142018;-72
2021/05/31 01:10:17;;;;;;;;;;;;;;;13.83;69.11;99327.40;378466;105;1961960;-71
2021/05/31 01:11:46;;;;;;;6.17;1.88;;;;;;;13.72;69.55;99320.91;376437;105;1961921;-71
2021/05/31 01:13:34;;;;;;;6.03;1.64;;;;;;;13.72;69.72;99320.08;349757;103;2727011;-71
2021/05/31 01:15:15;;;;;;;8.18;2.22;;;;;;;13.54;69.77;99323.71;349574;105;2432023;-72
2021/05/31 01:16:31;;;;;;;5.54;2.06;;;;;;;13.51;70.26;99324.19;397029;104;1985964;-75
2021/05/31 01:18:02;;;;;;;5.47;2.19;;;;;;;13.44;70.05;99326.16;393468;103;1985895;-71
2021/05/31 01:19:14;;;;;;;7.46;1.94;;;;;;;13.28;70.18;99330.37;365081;109;1961931;-71
2021/05/31 01:20:42;;;;;;;9.27;1.86;;;;;;;13.31;71.12;99328.05;387137;106;1986024;-75
2021/05/31 01:22:02;;;;;;;4.04;1.87;;;;;;;13.17;71.19;99324.65;364168;110;1962933;-75
2021/05/31 01:23:29;;;;;;;5.64;1.82;;;;;;;13.18;70.98;99320.90;302399;111;2195987;-74
2021/05/31 01:24:51;;;;;;;4.94;2.51;;;;;;;13.40;71.04;99323.11;385667;104;1984860;-71
2021/05/31 01:26:20;;;;;;;4.01;1.63;;;;;;;13.34;70.88;99322.15;371647;106;1964047;-72
2021/05/31 01:27:56;;;;;;;5.54;1.25;;;;;;;13.52;70.14;99314.97;396377;104;1986008;-76
2021/05/31 01:29:08;;;;;;;6.84;1.76;;;;;;;13.45;70.01;99322.41;330300;106;2092908;-74
2021/05/31 01:30:33;;;;;;;5.56;1.89;;;;;;;13.50;70.46;99323.36;377559;106;1961895;-76
2021/05/31 01:31:50;;;;;;;4.05;1.48;;;;;;;13.71;70.39;99321.98;392920;104;1972956;-73
2021/05/31 01:32:57;;;;;;;8.99;2.17;;;;;;;13.64;70.05;99324.78;375699;106;1961941;-74
2021/05/31 01:34:06;;;;;;;3.79;1.47;;;;;;;13.68;69.38;99319.73;329576;106;2810911;-74
2021/05/31 01:35:22;;;;;;;6.27;1.61;;;;;;;13.84;69.83;99324.46;380821;106;1985983;-75
2021/05/31 01:36:32;;;;;;;4.07;1.41;;;;;;;13.76;69.68;99327.53;347827;109;2334948;-73
2021/05/31 01:37:45;;;;;;;7.16;1.69;;;;;;;13.95;69.43;99327.42;395022;103;1986969;-73
2021/05/31 01:38:55;;;;;;;6.55;1.73;;;;;;;13.84;69.31;99326.36;338893;106;2582959;-74
2021/05/31 01:40:04;;;;;;;16.44;2.22;;;;;;;13.82;69.19;99323.86;373031;106;1961921;-74
2021/05/31 01:41:24;;;;;;;4.95;2.16;;;;;;;13.87;69.79;99331.31;368229;104;2893820;-72
2021/05/31 01:42:30;;;;;;;11.03;2.28;;;;;;;13.71;69.69;99324.69;373443;107;1962668;-72
2021/05/31 01:43:44;;;;;;;5.41;2.39;;;;;;;13.77;69.99;99325.64;381419;106;2073968;-73
2021/05/31 01:44:50;;;;;;;9.90;2.56;;;;;;;13.61;69.84;99327.16;370707;109;1963039;-71
2021/05/31 01:46:14;;;;;;;5.49;2.46;;;;;;;13.55;69.93;99331.63;344640;109;1964025;-71
2021/05/31 01:47:29;;;;;;;7.62;2.96;;;;;;;13.58;70.04;99333.05;380374;106;2071949;-74
2021/05/31 01:48:34;;;;;;;7.26;2.23;;;;;;;13.39;69.91;99327.70;342901;114;1961787;-75
2021/05/31 01:49:54;;;;;;;5.69;2.33;;;;;;;13.44;70.03;99328.88;388760;106;1987032;-73
2021/05/31 01:51:01;;;;;;;8.09;2.16;;;;;;;13.30;70.16;99329.08;370777;107;1961998;-75
2021/05/31 01:52:25;;;;;;;6.78;1.90;;;;;;;13.31;70.17;99332.62;304406;107;2280941;-75
2021/05/31 01:53:32;;;;;;;5.09;1.73;;;;;;;13.36;70.33;99324.61;371612;107;1961963;-75
2021/05/31 01:54:38;;;;;;;4.05;1.51;;;;;;;13.42;70.40;99329.13;373439;107;1961963;-75
2021/05/31 01:55:51;;;;;;;6.66;2.24;;;;;;;13.60;69.94;99331.76;349100;103;2100018;-71
2021/05/31 01:56:57;;;;;;;7.33;2.17;;;;;;;13.54;69.93;99329.14;375961;106;1961981;-71
2021/05/31 01:58:10;;;;;;;6.19;2.40;;;;;;;13.72;70.06;99337.19;355793;104;2892016;-71
2021/05/31 01:59:21;;;;;;;9.08;1.82;;;;;;;13.63;70.00;99339.42;364635;109;1961933;-71
2021/05/31 02:00:46;;;;;;;5.49;1.83;;;;;;;13.63;69.91;99334.00;360692;107;2926051;-72
2021/05/31 02:01:58;;;;;;;7.88;2.61;;;;;;;13.74;69.63;99336.97;396521;104;1986042;-71
2021/05/31 02:03:05;;;;;;;8.88;4.00;;;;;;;13.59;68.92;99340.94;378640;105;1963951;-72
2021/05/31 02:04:20;;;;;;;10.27;2.50;;;;;;;13.68;69.25;99341.45;393729;103;1990021;-71
2021/05/31 02:05:26;;;;;;;8.88;2.73;;;;;;;13.52;69.19;99336.68;345484;105;1961967;-72
2021/05/31 02:06:52;;;;;;;6.41;2.59;;;;;;;13.49;69.39;99342.58;348768;107;2361988;-71
2021/05/31 02:08:05;;;;;;;13.30;3.10;;;;;;;13.56;70.14;99332.45;393322;104;1986044;-72
2021/05/31 02:09:11;;;;;;;9.83;3.34;;;;;;;13.41;70.02;99335.59;347772;106;2449003;-72
2021/05/31 02:10:23;;;;;;;8.34;2.72;;;;;;;13.48;69.90;99332.80;394604;104;1963893;-71
2021/05/31 02:12:02;;;;;;;6.97;2.63;;;;;;;13.33;70.01;99336.75;374796;105;1962012;-71
2021/05/31 02:13:29;;;;;;;6.56;2.63;;;;;;;13.35;70.23;99336.53;367847;106;2888909;-71
2021/05/31 02:14:45;;;;;;;7.97;2.23;;;;;;;13.49;70.58;99337.15;359051;104;2025019;-75
2021/05/31 02:15:57;;;;;;;7.74;2.92;;;;;;;13.38;70.20;99346.92;375721;105;1961973;-75
2021/05/31 02:17:36;;;;;;;7.24;2.30;;;;;;;13.52;70.44;99340.24;393774;104;1985965;-71
2021/05/31 02:18:48;;;;;;;4.22;2.09;;;;;;;13.44;70.30;99337.02;330719;107;2661991;-71
2021/05/31 02:20:31;;;;;;;5.61;2.38;;;;;;;13.69;70.49;99343.09;394714;103;1986014;-75
2021/05/31 02:21:41;;;;;;;7.79;2.39;;;;;;;13.67;70.35;99344.38;343392;105;2422964;-75
2021/05/31 02:23:08;;;;;;;5.49;1.89;;;;;;;13.75;69.97;99344.03;377393;106;1962042;-74
2021/05/31 02:24:15;;;;;;;9.29;2.70;;;;;;;13.83;69.58;99344.51;376992;106;1961892;-74
2021/05/31 02:25:21;;;;;;;9.01;2.33;;;;;;;13.87;69.35;99349.50;375392;106;1961937;-74
2021/05/31 02:26:28;;;;;;;6.62;2.37;;;;;;;13.92;69.29;99339.58;336062;108;1962005;-75
2021/05/31 02:27:47;;;;;;;6.58;2.96;;;;;;;14.02;69.11;99341.68;382833;106;2072963;-71
2021/05/31 02:28:53;;;;;;;6.70;2.74;;;;;;;13.88;68.97;99346.53;345776;107;2365739;-71
2021/05/31 02:30:00;;;;;;;6.58;2.90;;;;;;;13.83;69.07;99347.22;335565;108;1962955;-71
2021/05/31 02:31:15;;;;;;;4.97;2.99;;;;;;;13.89;69.37;99350.06;356864;104;2610019;-73
2021/05/31 02:32:22;;;;;;;9.10;3.31;;;;;;;13.74;69.34;99354.08;371113;107;1962123;-74
2021/05/31 02:33:28;;;;;;;8.91;3.63;;;;;;;13.70;69.50;99350.16;329906;109;2639946;-74
2021/05/31 02:34:40;;;;;;;9.27;3.88;;;;;;;13.76;69.81;99351.11;392702;104;2071934;-73
2021/05/31 02:35:45;;;;;;;9.89;3.97;;;;;;;13.62;69.70;99350.51;377413;106;1962001;-72
2021/05/31 02:36:57;;;;;;;6.78;3.81;;;;;;;13.67;70.09;99344.38;392674;104;1986922;-70
2021/05/31 02:38:05;;;;;;;8.09;3.25;;;;;;;13.54;70.05;99356.27;332945;107;2661024;-71
2021/05/31 02:39:28;;;;;;;6.12;2.81;;;;;;;13.51;70.28;99351.31;349802;109;1961992;-71
2021/05/31 02:40:40;;;;;;;4.75;2.12;;;;;;;13.61;70.58;99349.69;393248;104;1986930;-71
2021/05/31 02:41:46;;;;;;;6.07;2.74;;;;;;;13.54;70.74;99354.38;376440;107;1961965;-71
2021/05/31 02:42:54;;;;;;;6.97;2.26;;;;;;;13.60;70.69;99349.91;371907;105;1961952;-71
2021/05/31 02:44:06;;;;;;;13.29;2.67;;;;;;;13.79;70.70;99346.05;393099;104;1985927;-72
2021/05/31 02:45:12;;;;;;;5.75;2.00;;;;;;;13.74;70.25;99342.39;374648;107;1962059;-71
2021/05/31 02:46:18;;;;;;;8.97;2.41;;;;;;;13.79;69.84;99348.77;373195;107;1962006;-71
2021/05/31 02:47:24;;;;;;;5.55;1.99;;;;;;;13.83;69.70;99341.80;373880;107;1962044;-72
2021/05/31 02:48:30;;;;;;;5.97;2.43;;;;;;;13.89;69.54;99344.63;325291;108;2727700;-72
2021/05/31 02:49:42;;;;;;;7.44;2.77;;;;;;;14.04;69.17;99345.81;384807;106;1961998;-71
2021/05/31 02:50:49;;;;;;;6.64;2.90;;;;;;;13.94;69.24;99342.86;366156;109;1969985;-73
2021/05/31 02:51:55;;;;;;;10.08;3.43;;;;;;;13.91;68.88;99347.95;330877;109;2531945;-71
2021/05/31 02:53:08;;;;;;;11.57;4.31;;;;;;;13.96;68.76;99348.06;393162;103;2072014;-71
2021/05/31 02:54:13;;;;;;;13.42;5.11;;;;;;;13.19;68.96;99256.63;380652;105;1962025;-71
2021/05/31 02:55:28;;;;;;;9.12;3.49;;;;;;;13.87;69.51;99349.50;348674;104;2067922;-75
2021/05/31 02:57:00;;;;;;;7.13;3.61;;;;;;;13.82;69.91;99351.02;369347;99;2679937;-75
2021/05/31 02:58:05;;;;;;;9.73;3.54;;;;;;;13.69;69.37;99351.23;365890;103;1962027;-74
2021/05/31 02:59:17;;;;;;;10.85;3.66;;;;;;;13.76;69.28;99345.68;384855;106;1985962;-74
2021/05/31 03:00:27;;;;;;;8.40;3.63;;;;;;;13.61;69.56;99348.86;348311;109;2274006;-75
2021/05/31 03:01:32;;;;;;;9.47;3.41;;;;;;;13.60;69.69;99345.33;363867;110;1961980;-74
2021/05/31 03:02:40;;;;;;;9.41;3.04;;;;;;;13.56;69.89;99346.84;366267;108;1961827;-73
2021/05/31 03:03:45;;;;;;;7.73;3.63;;;;;;;13.54;69.89;99350.84;341326;108;1962042;-76
2021/05/31 03:04:59;;;;;;;12.59;3.45;;;;;;;13.64;70.15;99345.67;386488;106;1964085;-76
2021/05/31 03:06:05;;;;;;;9.05;3.54;;;;;;;13.49;70.02;99348.00;323304;108;2061022;-76
2021/05/31 03:07:11;;;;;;;8.22;2.76;;;;;;;13.47;70.35;99352.83;336717;112;1961976;-74
2021/05/31 03:08:16;;;;;;;7.67;3.48;;;;;;;13.48;70.64;99340.94;363971;109;1961987;-75
2021/05/31 03:09:28;;;;;;;6.43;2.63;;;;;;;13.66;70.48;99346.28;394221;104;1985944;-71
2021/05/31 03:10:35;;;;;;;7.91;2.88;;;;;;;13.61;70.30;99349.69;378025;105;1963020;-72
2021/05/31 03:11:40;;;;;;;12.63;2.89;;;;;;;13.70;70.53;99347.45;376178;106;1961933;-71
2021/05/31 03:12:53;;;;;;;8.06;2.77;;;;;;;13.93;70.39;99352.08;394556;104;1985971;-71
2021/05/31 03:14:05;;;;;;;9.22;2.83;;;;;;;14.05;70.23;99360.22;393016;104;2072056;-75
2021/05/31 03:15:30;;;;;;;5.80;2.56;;;;;;;14.03;70.06;99352.32;374067;105;1961935;-76
2021/05/31 03:16:42;;;;;;;8.74;3.23;;;;;;;14.27;69.79;99350.42;354870;106;1992019;-74
2021/05/31 03:17:50;;;;;;;10.23;3.43;;;;;;;14.25;69.60;99351.72;335730;109;1961988;-74
2021/05/31 03:19:13;;;;;;;8.99;3.64;;;;;;;14.35;69.28;99356.56;353855;112;1963776;-76
2021/05/31 03:20:29;;;;;;;7.82;4.03;;;;;;;14.49;68.73;99347.89;391003;104;2071974;-70
2021/05/31 03:21:34;;;;;;;10.68;3.32;;;;;;;14.38;68.47;99356.90;375925;106;1969951;-73
2021/05/31 03:22:47;;;;;;;9.78;4.18;;;;;;;14.45;68.52;99351.35;383135;104;2954997;-71
2021/05/31 03:23:52;;;;;;;9.76;3.71;;;;;;;14.30;68.32;99354.55;344928;106;1961982;-71
2021/05/31 03:25:16;;;;;;;9.78;3.41;;;;;;;14.24;68.35;99350.90;376582;106;1962964;-72
2021/05/31 03:26:23;;;;;;;7.82;3.27;;;;;;;14.18;68.40;99343.67;342801;106;1961914;-72
2021/05/31 03:27:37;;;;;;;9.84;4.32;;;;;;;14.25;68.50;99349.82;386663;103;2071952;-74
2021/05/31 03:28:49;;;;;;;12.66;5.51;;;;;;;14.19;68.62;99348.06;397152;104;1985875;-74
2021/05/31 03:29:54;;;;;;;11.19;4.52;;;;;;;14.06;68.63;99353.73;373372;107;1961994;-75
2021/05/31 03:31:10;;;;;;;11.39;5.37;;;;;;;14.14;69.02;99350.66;387796;106;1985972;-71
2021/05/31 03:32:16;;;;;;;14.22;5.91;;;;;;;14.03;68.94;99352.32;365843;108;1962092;-72
2021/05/31 03:33:40;;;;;;;13.84;4.43;;;;;;;14.03;68.95;99354.22;352555;115;1962017;-72
2021/05/31 03:34:52;;;;;;;7.84;4.01;;;;;;;14.13;69.14;99356.32;329958;108;2758997;-72
2021/05/31 03:35:58;;;;;;;10.47;4.24;;;;;;;14.02;68.95;99353.36;345685;112;1961964;-73
2021/05/31 03:37:10;;;;;;;9.43;4.15;;;;;;;14.13;69.29;99359.03;392578;104;1986007;-72
2021/05/31 03:38:16;;;;;;;11.10;4.71;;;;;;;14.00;69.17;99352.80;370872;106;1961987;-71
2021/05/31 03:39:39;;;;;;;9.89;4.47;;;;;;;14.00;69.21;99357.41;371217;107;1965054;-72
2021/05/31 03:40:52;;;;;;;14.03;5.32;;;;;;;14.10;69.20;99349.47;378167;104;2908043;-72
2021/05/31 03:41:58;;;;;;;17.50;5.12;;;;;;;13.99;69.09;99359.27;370814;105;1961963;-72
2021/05/31 03:43:29;;;;;;;9.85;4.08;;;;;;;14.11;69.23;99361.19;400343;101;1986022;-73
2021/05/31 03:44:35;;;;;;;9.78;4.14;;;;;;;13.98;69.23;99360.34;384969;102;1963011;-72
2021/05/31 03:45:58;;;;;;;9.17;4.96;;;;;;;13.99;69.10;99355.73;388180;102;1961899;-71
2021/05/31 03:47:11;;;;;;;9.50;4.45;;;;;;;14.11;69.14;99362.01;399330;104;1986941;-72
2021/05/31 03:48:16;;;;;;;10.83;4.92;;;;;;;14.02;68.99;99361.52;379985;105;1962050;-72
2021/05/31 03:49:28;;;;;;;9.20;4.29;;;;;;;14.14;69.05;99361.53;384516;106;2073036;-76
2021/05/31 03:50:35;;;;;;;10.14;4.04;;;;;;;14.04;68.86;99358.58;365300;109;1960756;-74
2021/05/31 03:51:59;;;;;;;8.77;4.61;;;;;;;14.02;68.61;99361.52;364685;109;1962902;-75
2021/05/31 03:53:05;;;;;;;9.85;4.58;;;;;;;14.02;68.57;99364.23;363271;109;1962059;-76
2021/05/31 03:54:17;;;;;;;10.95;4.93;;;;;;;14.12;68.71;99358.22;382637;104;2079953;-72
2021/05/31 03:55:23;;;;;;;9.85;4.77;;;;;;;14.01;68.91;99364.48;367327;105;1960971;-73
2021/05/31 03:56:29;;;;;;;11.13;4.88;;;;;;;14.02;69.18;99363.41;378235;105;1960983;-72
2021/05/31 03:57:41;;;;;;;12.83;5.37;;;;;;;14.17;69.41;99363.77;386537;104;1986015;-75
2021/05/31 03:58:48;;;;;;;9.65;3.98;;;;;;;14.08;69.19;99360.59;320114;110;2021539;-76
2021/05/31 03:59:54;;;;;;;9.58;4.11;;;;;;;14.12;69.12;99363.65;367140;109;1960891;-77
2021/05/31 04:01:06;;;;;;;10.65;6.02;;;;;;;14.26;68.30;99365.08;382258;104;3058976;-73
2021/05/31 04:02:12;;;;;;;8.47;3.89;;;;;;;14.14;68.58;99361.53;351014;106;2364152;-72
2021/05/31 04:03:24;;;;;;;9.33;4.17;;;;;;;14.23;68.16;99359.27;385614;104;2071871;-72
2021/05/31 04:04:40;;;;;;;12.44;4.10;;;;;;;14.11;68.48;99362.01;374068;108;1963948;-74
2021/05/31 04:11:39;;;;;;;8.77;4.66;;;;;;;14.17;67.48;99346.65;374434;107;1962075;-72
2021/05/31 04:13:02;;;;;;;11.11;5.37;;;;;;;14.18;67.48;99351.01;358529;107;1962022;-72
2021/05/31 04:14:16;;;;;;;10.96;4.35;;;;;;;14.30;67.44;99349.94;394585;104;1985973;-72
2021/05/31 04:15:22;;;;;;;10.64;3.89;;;;;;;14.19;67.38;99352.68;358588;105;1963031;-71
2021/05/31 04:16:55;;;;;;;10.84;4.62;;;;;;;14.30;67.06;99352.66;395454;103;1985979;-71
2021/05/31 04:18:01;;;;;;;9.76;4.07;;;;;;;14.18;67.03;99348.29;343683;105;2518346;-72
2021/05/31 04:19:26;;;;;;;6.68;3.61;;;;;;;14.18;66.93;99351.83;374644;107;1963020;-72
2021/05/31 04:20:38;;;;;;;7.97;3.96;;;;;;;14.29;66.79;99351.02;399233;103;1961028;-72
2021/05/31 04:21:46;;;;;;;10.08;5.57;;;;;;;14.18;66.75;99353.72;380622;105;1962061;-73
2021/05/31 04:23:04;;;;;;;7.39;3.99;;;;;;;14.29;66.77;99355.63;386687;106;1985954;-74
2021/05/31 04:24:21;;;;;;;11.13;4.49;;;;;;;14.18;66.78;99357.26;365459;109;1963062;-76
2021/05/31 04:25:45;;;;;;;11.50;4.49;;;;;;;14.16;66.61;99353.98;362987;109;1962003;-73
2021/05/31 04:26:51;;;;;;;9.96;5.26;;;;;;;14.11;66.59;99356.58;328486;111;2568062;-73
2021/05/31 04:27:56;;;;;;;12.01;7.36;;;;;;;14.10;66.76;99359.52;330388;110;1962022;-72
2021/05/31 04:29:11;;;;;;;13.63;5.56;;;;;;;14.20;66.80;99351.60;390563;104;2071966;-76
2021/05/31 04:30:18;;;;;;;10.86;5.14;;;;;;;14.06;66.86;99359.99;377934;105;1963013;-77
2021/05/31 04:31:24;;;;;;;10.89;4.47;;;;;;;14.05;66.79;99361.07;376454;105;1963967;-77
2021/05/31 04:32:56;;;;;;;12.31;4.10;;;;;;;14.15;67.00;99368.61;372801;99;2007020;-72
2021/05/31 04:34:06;;;;;;;7.54;4.25;;;;;;;14.03;67.04;99365.91;356290;101;1961978;-72
2021/05/31 04:35:18;;;;;;;6.30;3.35;;;;;;;14.15;67.12;99367.78;395666;103;1985951;-72
2021/05/31 04:36:25;;;;;;;11.21;4.66;;;;;;;14.04;66.67;99367.55;380161;105;1961899;-72
2021/05/31 04:37:48;;;;;;;9.89;4.86;;;;;;;14.04;66.82;99361.29;376951;105;1961931;-72
2021/05/31 04:38:54;;;;;;;7.83;3.84;;;;;;;14.04;66.80;99374.87;375864;107;1960733;-72
2021/05/31 04:40:07;;;;;;;8.25;3.74;;;;;;;14.16;66.76;99367.56;396039;104;1985936;-72
2021/05/31 04:41:12;;;;;;;13.02;5.30;;;;;;;14.06;66.70;99370.86;375368;105;1961988;-72
2021/05/31 04:42:18;;;;;;;14.31;4.79;;;;;;;14.06;66.67;99361.89;376967;107;1962040;-73
2021/05/31 04:43:32;;;;;;;12.64;5.95;;;;;;;14.19;66.50;99358.94;349525;101;2086046;-72
2021/05/31 04:44:37;;;;;;;8.35;4.14;;;;;;;14.10;66.49;99370.38;366167;102;1960879;-72
2021/05/31 04:45:49;;;;;;;12.70;4.38;;;;;;;14.22;66.47;99372.03;392233;104;1987110;-73
2021/05/31 04:46:55;;;;;;;9.50;4.29;;;;;;;14.11;66.50;99367.44;306269;107;2215525;-74
2021/05/31 04:48:09;;;;;;;10.90;3.59;;;;;;;14.28;66.47;99373.80;391223;104;1986989;-72
2021/05/31 04:49:15;;;;;;;9.52;3.48;;;;;;;14.19;66.28;99374.41;319575;107;2846975;-72
2021/05/31 04:50:40;;;;;;;11.13;4.53;;;;;;;14.26;66.27;99375.09;332485;107;1960695;-73
2021/05/31 04:51:53;;;;;;;9.06;4.07;;;;;;;14.46;66.28;99375.55;400700;101;2071996;-77
2021/05/31 04:52:59;;;;;;;7.08;3.39;;;;;;;14.44;66.12;99376.86;378200;105;1962003;-77
2021/05/31 04:54:05;;;;;;;12.37;4.84;;;;;;;14.51;65.73;99378.39;325081;107;2845997;-77
2021/05/31 04:55:18;;;;;;;10.29;3.82;;;;;;;14.73;65.60;99377.78;386235;106;1965927;-75
2021/05/31 04:56:26;;;;;;;11.73;4.28;;;;;;;14.71;65.39;99385.34;364602;109;1970015;-77
2021/05/31 04:57:32;;;;;;;9.48;4.33;;;;;;;14.83;65.16;99383.44;363921;111;1961900;-76
2021/05/31 04:58:37;;;;;;;12.64;5.66;;;;;;;14.94;64.85;99384.47;365037;111;1961928;-76
2021/05/31 04:59:50;;;;;;;9.67;4.51;;;;;;;15.15;64.59;99375.63;349574;106;2541997;-75
2021/05/31 05:00:56;;;;;;;10.31;4.51;;;;;;;15.15;64.42;99385.70;370455;108;1961937;-77
2021/05/31 05:02:09;;;;;;;10.76;4.73;;;;;;;15.37;64.00;99386.67;400538;101;2070865;-72
2021/05/31 05:03:17;;;;;;;15.02;4.07;;;;;;;15.30;63.63;99380.55;370951;103;2894882;-72
2021/05/31 05:04:22;;;;;;;11.44;4.25;;;;;;;15.32;62.96;99381.14;377841;107;1960874;-72
2021/05/31 05:05:35;;;;;;;10.97;5.16;;;;;;;15.44;63.10;99380.25;349026;104;2705925;-76
2021/05/31 05:06:41;;;;;;;11.94;6.02;;;;;;;15.38;62.84;99382.88;374775;106;1962021;-76
2021/05/31 05:07:47;;;;;;;10.20;4.30;;;;;;;15.38;63.10;99382.05;372377;107;1961987;-75
2021/05/31 05:08:59;;;;;;;11.96;4.41;;;;;;;15.49;63.09;99383.06;381032;106;2072997;-72
2021/05/31 05:10:05;;;;;;;9.89;4.64;;;;;;;15.36;62.77;99384.19;314111;109;2868986;-72
2021/05/31 05:11:17;;;;;;;12.84;4.75;;;;;;;15.44;62.61;99381.06;387416;106;1964066;-72
2021/05/31 05:12:22;;;;;;;20.32;8.42;;;;;;;15.30;62.84;99382.45;368762;109;1969051;-72
2021/05/31 05:13:46;;;;;;;13.46;6.47;;;;;;;15.29;62.64;99384.32;356828;109;1961948;-73
2021/05/31 05:15:01;;;;;;;12.50;4.24;;;;;;;15.41;62.47;99387.00;396370;104;1985990;-73
2021/05/31 05:16:07;;;;;;;12.19;4.91;;;;;;;15.30;62.31;99375.11;373783;107;1961963;-72
2021/05/31 05:17:12;;;;;;;9.98;4.35;;;;;;;15.31;62.56;99378.65;376316;107;1960807;-73
2021/05/31 05:18:19;;;;;;;10.94;3.69;;;;;;;15.31;61.68;99378.65;368526;107;1961987;-73
2021/05/31 05:19:25;;;;;;;9.97;3.67;;;;;;;15.29;61.81;99378.88;339959;107;2471978;-72
2021/05/31 05:20:37;;;;;;;12.03;4.11;;;;;;;15.34;62.05;99364.55;376862;107;2072040;-77
2021/05/31 05:21:49;;;;;;;11.56;5.13;;;;;;;15.44;61.97;99375.63;393259;104;1987025;-76
2021/05/31 05:22:56;;;;;;;11.38;4.16;;;;;;;15.35;62.06;99377.10;339940;107;2512921;-77
2021/05/31 05:24:08;;;;;;;7.85;3.54;;;;;;;15.49;61.95;99383.87;393836;104;1964978;-75
2021/05/31 05:25:15;;;;;;;9.58;3.88;;;;;;;15.39;61.93;99387.23;375962;105;1969950;-76
2021/05/31 05:26:39;;;;;;;12.48;5.32;;;;;;;15.43;61.84;99389.47;375849;107;1962149;-76
2021/05/31 05:27:53;;;;;;;11.49;5.04;;;;;;;15.55;61.74;99385.61;389257;104;2072032;-77
2021/05/31 05:28:58;;;;;;;7.72;3.76;;;;;;;15.44;61.83;99381.06;363069;104;1960930;-72
2021/05/31 05:30:05;;;;;;;8.72;4.56;;;;;;;15.45;61.45;99388.15;357085;112;1960854;-73
2021/05/31 05:31:19;;;;;;;10.43;3.81;;;;;;;15.54;61.47;99380.44;389087;106;2002921;-76
2021/05/31 05:32:25;;;;;;;7.33;3.59;;;;;;;15.45;61.13;99385.42;338994;107;2515932;-76
2021/05/31 05:33:32;;;;;;;10.10;4.92;;;;;;;15.45;61.19;99382.70;344559;108;1961920;-75
2021/05/31 05:34:46;;;;;;;11.38;4.38;;;;;;;15.60;61.33;99382.98;371700;104;1994832;-76
2021/05/31 05:35:56;;;;;;;12.12;4.49;;;;;;;15.50;61.21;99388.24;375961;105;1961896;-76
2021/05/31 05:39:47;;;;;;;11.51;4.13;;;;;;;15.48;60.95;99387.69;355411;108;1961067;-76
2021/05/31 05:40:56;;;;;;;20.23;5.92;;;;;;;15.52;60.93;99388.02;393614;104;1964834;-76